Time;durP1;ratioP1;P1;durP2;ratioP2;P2;SDS_P1;SDS_P2;PMS_P1;PMS_P2;Temp;Humidity;BMP_temperature;BMP_pressure;BME280_temperature;BME280_humidity;BME280_pressure;Samples;Min_cycle;Max_cycle;Signal;HPM_P1;HPM_P2
2020/12/23 00:01:25;;;;;;;1.27;1.10;;;11.10;99.90;;;;;;4912227;29;20059;-79
2020/12/23 00:03:53;;;;;;;3.20;0.82;;;11.00;99.90;;;;;;4913121;29;20056;-79
2020/12/23 00:06:37;;;;;;;2.85;1.10;;;11.00;99.90;;;;;;4912790;29;20044;-79
2020/12/23 00:09:05;;;;;;;1.88;1.15;;;11.00;99.90;;;;;;4896547;29;20142;-79
2020/12/23 00:11:32;;;;;;;1.10;1.00;;;11.00;99.90;;;;;;4912236;29;20143;-79
2020/12/23 00:13:58;;;;;;;1.48;1.05;;;11.00;99.90;;;;;;4897401;29;20094;-78
2020/12/23 00:16:25;;;;;;;1.48;0.90;;;11.00;99.90;;;;;;4912733;29;20500;-79
2020/12/23 00:18:56;;;;;;;1.42;0.90;;;11.00;99.90;;;;;;4911789;29;20044;-79
2020/12/23 00:21:27;;;;;;;1.58;0.90;;;10.90;99.90;;;;;;4911734;29;20063;-79
2020/12/23 00:23:59;;;;;;;0.90;0.80;;;10.90;99.90;;;;;;4899425;29;20044;-79
2020/12/23 00:26:30;;;;;;;2.85;0.85;;;10.90;99.90;;;;;;4899717;29;20051;-79
2020/12/23 00:29:01;;;;;;;1.05;0.95;;;11.00;99.90;;;;;;4899968;29;20044;-79
2020/12/23 00:31:28;;;;;;;1.27;0.70;;;10.90;99.90;;;;;;4918428;29;20130;-79
2020/12/23 00:33:59;;;;;;;1.52;0.95;;;11.00;99.90;;;;;;4908849;29;20515;-78
2020/12/23 00:36:25;;;;;;;1.10;0.65;;;11.00;99.90;;;;;;4920287;29;20043;-78
2020/12/23 00:38:51;;;;;;;1.58;0.55;;;11.00;99.90;;;;;;4918477;29;20057;-79
2020/12/23 00:41:22;;;;;;;1.10;0.75;;;10.90;99.90;;;;;;4936332;29;20051;-79
2020/12/23 00:43:53;;;;;;;1.10;0.80;;;10.90;99.90;;;;;;4936235;28;20043;-79
2020/12/23 00:46:20;;;;;;;1.88;0.80;;;10.90;99.90;;;;;;4935914;29;20138;-79
2020/12/23 00:48:46;;;;;;;1.30;0.93;;;10.80;99.90;;;;;;4919869;29;20166;-79
2020/12/23 00:51:18;;;;;;;2.83;1.58;;;10.90;99.90;;;;;;4928638;29;20134;-79
2020/12/23 00:53:49;;;;;;;1.13;0.70;;;10.90;99.90;;;;;;4921347;28;20130;-79
2020/12/23 00:56:15;;;;;;;0.60;0.50;;;10.80;99.90;;;;;;4936337;29;20050;-79
2020/12/23 00:58:41;;;;;;;2.75;0.80;;;10.80;99.90;;;;;;4930932;29;20120;-79
2020/12/23 01:01:13;;;;;;;1.40;0.73;;;10.80;99.90;;;;;;4903481;29;20051;-79
2020/12/23 01:03:45;;;;;;;1.50;0.70;;;10.80;99.90;;;;;;4914626;28;20130;-79
2020/12/23 01:06:17;;;;;;;2.63;0.60;;;10.80;99.90;;;;;;4933445;29;20043;-79
2020/12/23 01:08:48;;;;;;;1.35;0.95;;;10.80;99.90;;;;;;4933712;29;20054;-79
2020/12/23 01:11:20;;;;;;;3.05;0.65;;;10.90;99.90;;;;;;4952144;29;20130;-79
2020/12/23 01:13:51;;;;;;;0.80;0.60;;;10.90;99.90;;;;;;4935584;28;20053;-79
2020/12/23 01:16:23;;;;;;;1.23;0.73;;;10.80;99.90;;;;;;4934706;29;20051;-79
2020/12/23 01:18:54;;;;;;;0.85;0.60;;;10.90;99.90;;;;;;4919415;29;20058;-79
2020/12/23 01:21:21;;;;;;;0.90;0.50;;;10.80;99.90;;;;;;4918994;29;20051;-79
2020/12/23 01:23:52;;;;;;;2.08;0.70;;;10.80;99.90;;;;;;4935487;28;20043;-79
2020/12/23 01:26:23;;;;;;;0.95;0.50;;;10.90;99.90;;;;;;4934692;29;20044;-79
2020/12/23 01:28:54;;;;;;;1.95;0.55;;;10.90;99.90;;;;;;4919270;29;20039;-79
2020/12/23 01:31:20;;;;;;;0.70;0.50;;;10.80;99.90;;;;;;4934593;29;20147;-79
2020/12/23 01:33:52;;;;;;;0.90;0.55;;;10.70;99.90;;;;;;4919294;28;20504;-79
2020/12/23 01:36:18;;;;;;;0.93;0.70;;;10.80;99.90;;;;;;4934770;29;20039;-79
2020/12/23 01:38:44;;;;;;;1.23;0.68;;;10.70;99.90;;;;;;4917182;29;20055;-79
2020/12/23 01:41:10;;;;;;;0.95;0.68;;;10.70;99.90;;;;;;4918512;29;20047;-78
2020/12/23 01:43:38;;;;;;;1.65;0.70;;;10.70;99.90;;;;;;4918873;28;20047;-79
2020/12/23 01:46:04;;;;;;;1.25;0.63;;;10.70;99.90;;;;;;4936662;29;20415;-78
2020/12/23 01:48:32;;;;;;;0.93;0.60;;;10.70;99.90;;;;;;4922160;29;20143;-79
2020/12/23 01:51:03;;;;;;;1.10;0.63;;;10.60;99.90;;;;;;4923010;29;20392;-79
2020/12/23 01:53:35;;;;;;;1.00;0.85;;;10.70;99.90;;;;;;4922631;28;20503;-78
2020/12/23 01:56:06;;;;;;;1.00;0.70;;;10.70;99.90;;;;;;4922866;29;20083;-79
2020/12/23 01:58:34;;;;;;;1.77;0.80;;;10.70;99.90;;;;;;4937865;29;20106;-79
2020/12/23 02:01:05;;;;;;;1.17;0.68;;;10.60;99.90;;;;;;4936851;29;20043;-79
2020/12/23 02:03:36;;;;;;;1.25;0.70;;;10.60;99.90;;;;;;4922669;28;20061;-79
2020/12/23 02:06:03;;;;;;;1.20;0.70;;;10.60;99.90;;;;;;4922238;29;20058;-79
2020/12/23 02:08:34;;;;;;;0.75;0.60;;;10.50;99.90;;;;;;4937818;29;20418;-79
2020/12/23 02:11:01;;;;;;;0.90;0.70;;;10.50;99.90;;;;;;4955315;29;20053;-79
2020/12/23 02:13:42;;;;;;;1.17;0.77;;;10.50;99.90;;;;;;4922117;29;20146;-79
2020/12/23 02:16:09;;;;;;;0.70;0.50;;;10.50;99.90;;;;;;4954981;29;20122;-79
2020/12/23 02:18:42;;;;;;;1.10;0.60;;;10.50;99.90;;;;;;4937964;29;20047;-79
2020/12/23 02:21:09;;;;;;;0.70;0.50;;;10.50;99.90;;;;;;4918390;29;20367;-78
2020/12/23 02:23:40;;;;;;;1.10;0.77;;;10.50;99.90;;;;;;4921459;28;20043;-79
2020/12/23 02:26:06;;;;;;;4.32;0.70;;;10.50;99.90;;;;;;4937466;29;20106;-79
2020/12/23 02:28:33;;;;;;;1.63;0.80;;;10.50;99.90;;;;;;4937066;29;20066;-79
2020/12/23 02:31:02;;;;;;;0.40;0.35;;;10.60;99.90;;;;;;4954850;29;20467;-79
2020/12/23 02:33:33;;;;;;;1.48;0.70;;;10.60;99.90;;;;;;4937750;28;20054;-79
2020/12/23 02:35:59;;;;;;;1.30;0.60;;;10.70;99.90;;;;;;4921992;29;20047;-79
2020/12/23 02:38:31;;;;;;;0.93;0.45;;;10.70;99.90;;;;;;4936908;29;20047;-79
2020/12/23 02:41:02;;;;;;;0.63;0.50;;;10.70;99.90;;;;;;4954680;29;20415;-79
2020/12/23 02:43:28;;;;;;;1.10;0.60;;;10.70;99.90;;;;;;4921688;29;20043;-79
2020/12/23 02:45:54;;;;;;;1.10;0.73;;;10.80;99.90;;;;;;4937041;29;20114;-79
2020/12/23 02:48:21;;;;;;;1.35;0.70;;;10.80;99.90;;;;;;4921077;29;20755;-79
2020/12/23 02:50:52;;;;;;;1.52;0.60;;;10.90;99.90;;;;;;4937946;29;20047;-80
2020/12/23 02:53:18;;;;;;;1.23;0.60;;;10.90;99.90;;;;;;4954360;29;20406;-79
2020/12/23 02:55:49;;;;;;;0.77;0.50;;;11.00;99.90;;;;;;4936725;28;20047;-79
2020/12/23 02:58:15;;;;;;;1.85;0.68;;;11.00;99.90;;;;;;4920614;29;20078;-79
2020/12/23 03:00:42;;;;;;;0.57;0.40;;;11.00;99.90;;;;;;4921029;29;20063;-79
2020/12/23 03:03:08;;;;;;;0.60;0.60;;;11.00;99.90;;;;;;4920713;29;20047;-79
2020/12/23 03:05:39;;;;;;;0.60;0.45;;;11.00;99.90;;;;;;4936766;29;20047;-79
2020/12/23 03:08:05;;;;;;;0.98;0.57;;;10.90;99.90;;;;;;4936345;29;20043;-79
2020/12/23 03:10:36;;;;;;;1.45;0.60;;;10.90;99.90;;;;;;4936601;29;20061;-78
2020/12/23 03:13:03;;;;;;;0.70;0.55;;;11.00;99.90;;;;;;4936118;29;20483;-79
2020/12/23 03:15:34;;;;;;;0.90;0.68;;;11.00;99.90;;;;;;4936402;29;20042;-79
2020/12/23 03:18:00;;;;;;;0.70;0.40;;;11.00;99.90;;;;;;4920147;29;20051;-79
2020/12/23 03:20:26;;;;;;;0.60;0.35;;;11.10;99.90;;;;;;4920481;29;20106;-79
2020/12/23 03:22:52;;;;;;;0.57;0.57;;;11.10;99.90;;;;;;4920371;29;20503;-79
2020/12/23 03:25:24;;;;;;;0.65;0.43;;;11.10;99.90;;;;;;4935767;29;20070;-79
2020/12/23 03:27:50;;;;;;;1.95;0.50;;;11.10;99.90;;;;;;4936087;29;20036;-79
2020/12/23 03:30:16;;;;;;;1.27;0.70;;;11.00;99.90;;;;;;4935973;29;20051;-79
2020/12/23 03:32:47;;;;;;;0.60;0.40;;;11.10;99.90;;;;;;4936052;29;20499;-79
2020/12/23 03:35:19;;;;;;;0.30;0.30;;;11.10;99.90;;;;;;4921267;29;20047;-79
2020/12/23 03:37:50;;;;;;;1.10;0.60;;;11.10;99.90;;;;;;4920252;29;20130;-79
2020/12/23 03:40:21;;;;;;;0.93;0.50;;;11.10;99.90;;;;;;4935920;29;20045;-79
2020/12/23 03:42:48;;;;;;;2.47;0.50;;;11.10;99.90;;;;;;4920190;29;20450;-79
2020/12/23 03:45:14;;;;;;;0.65;0.38;;;11.10;99.90;;;;;;4936080;29;20075;-79
2020/12/23 03:47:45;;;;;;;0.65;0.30;;;11.10;99.90;;;;;;4920389;29;20054;-79
2020/12/23 03:50:11;;;;;;;0.95;0.50;;;11.10;99.90;;;;;;4919999;29;20043;-79
2020/12/23 03:52:42;;;;;;;0.57;0.40;;;11.00;99.90;;;;;;4936251;29;20050;-79
2020/12/23 03:55:14;;;;;;;0.43;0.30;;;11.00;99.90;;;;;;4936082;29;20046;-79
2020/12/23 03:57:40;;;;;;;0.70;0.50;;;11.00;99.90;;;;;;4920037;29;20131;-79
2020/12/23 04:00:09;;;;;;;2.75;0.40;;;11.00;99.90;;;;;;4952774;29;20050;-79
2020/12/23 04:02:38;;;;;;;0.60;0.50;;;11.00;99.90;;;;;;4952663;29;20058;-79
2020/12/23 04:05:05;;;;;;;0.50;0.40;;;11.00;99.90;;;;;;4935118;29;20128;-79
2020/12/23 04:07:37;;;;;;;0.63;0.47;;;11.00;99.90;;;;;;4934981;28;20518;-79
2020/12/23 04:10:09;;;;;;;0.55;0.30;;;10.90;99.90;;;;;;4935367;29;20151;-79
2020/12/23 04:12:41;;;;;;;0.52;0.45;;;10.90;99.90;;;;;;4936324;29;20049;-78
2020/12/23 04:15:13;;;;;;;0.32;0.32;;;10.90;99.90;;;;;;4935052;29;20053;-79
2020/12/23 04:17:39;;;;;;;0.40;0.30;;;10.90;99.90;;;;;;4919425;29;20623;-79
2020/12/23 04:20:11;;;;;;;0.47;0.30;;;10.90;99.90;;;;;;4935323;29;20098;-79
2020/12/23 04:22:37;;;;;;;0.50;0.40;;;10.90;99.90;;;;;;4919538;29;20526;-79
2020/12/23 04:25:06;;;;;;;1.02;0.50;;;11.00;99.90;;;;;;4919474;29;20055;-79
2020/12/23 04:27:37;;;;;;;0.68;0.40;;;10.90;99.90;;;;;;4935934;29;20125;-79
2020/12/23 04:30:06;;;;;;;0.80;0.40;;;10.90;99.90;;;;;;4919279;29;20047;-79
2020/12/23 04:32:38;;;;;;;1.17;0.40;;;10.90;99.90;;;;;;4935718;29;20049;-79
2020/12/23 04:35:09;;;;;;;3.80;0.43;;;10.90;99.90;;;;;;4936025;29;20051;-79
2020/12/23 04:37:40;;;;;;;0.65;0.40;;;10.90;99.90;;;;;;4935178;29;20057;-79
2020/12/23 04:40:11;;;;;;;0.70;0.40;;;11.00;99.90;;;;;;4934601;29;20043;-79
2020/12/23 04:42:43;;;;;;;0.50;0.40;;;10.90;99.90;;;;;;4935034;29;20047;-79
2020/12/23 04:45:09;;;;;;;1.05;0.50;;;11.00;99.90;;;;;;4919066;29;20043;-79
2020/12/23 04:47:40;;;;;;;0.90;0.57;;;11.00;99.90;;;;;;4935106;29;20403;-79
2020/12/23 04:50:14;;;;;;;0.70;0.50;;;10.90;99.90;;;;;;4935174;29;20066;-79
2020/12/23 04:52:45;;;;;;;;;;;10.90;99.90;;;;;;4936576;29;20071;-79
2020/12/23 04:55:11;;;;;;;0.68;0.40;;;11.00;99.90;;;;;;4935475;29;20382;-78
2020/12/23 04:57:44;;;;;;;0.60;0.40;;;10.90;99.90;;;;;;4935309;29;20146;-79
2020/12/23 05:00:10;;;;;;;1.70;0.40;;;10.90;99.90;;;;;;4935492;29;20605;-79
2020/12/23 05:02:41;;;;;;;0.73;0.47;;;10.90;99.90;;;;;;4935423;29;20507;-79
2020/12/23 05:05:07;;;;;;;0.90;0.60;;;11.00;99.90;;;;;;4919424;29;20058;-79
2020/12/23 05:07:38;;;;;;;0.50;0.40;;;11.00;99.90;;;;;;4935224;29;20054;-79
2020/12/23 05:10:10;;;;;;;0.73;0.68;;;11.00;99.90;;;;;;4936707;29;20051;-79
2020/12/23 05:12:36;;;;;;;1.00;0.50;;;11.00;99.90;;;;;;4922940;29;20059;-80
2020/12/23 05:15:08;;;;;;;1.35;0.50;;;10.90;99.90;;;;;;4921859;29;20122;-81
2020/12/23 05:17:35;;;;;;;1.55;0.40;;;11.00;99.90;;;;;;4938515;29;20486;-81
2020/12/23 05:20:07;;;;;;;1.10;0.40;;;10.90;99.90;;;;;;4921790;29;20078;-81
2020/12/23 05:22:45;;;;;;;0.47;0.40;;;10.90;99.90;;;;;;4925765;29;20132;-80
2020/12/23 05:25:13;;;;;;;0.50;0.43;;;10.90;99.90;;;;;;4924776;29;20053;-81
2020/12/23 05:27:41;;;;;;;1.02;0.75;;;10.90;99.90;;;;;;4940937;29;20047;-81
2020/12/23 05:30:11;;;;;;;0.43;0.38;;;11.00;99.90;;;;;;4940734;29;20051;-80
2020/12/23 05:32:47;;;;;;;0.40;0.40;;;11.00;99.90;;;;;;4925730;29;20047;-80
2020/12/23 05:35:20;;;;;;;0.68;0.40;;;11.00;99.90;;;;;;4940561;29;20463;-81
2020/12/23 05:37:47;;;;;;;0.80;0.50;;;11.00;99.90;;;;;;4940359;29;20051;-81
2020/12/23 05:40:14;;;;;;;1.08;0.60;;;11.00;99.90;;;;;;4924477;29;20055;-80
2020/12/23 05:42:43;;;;;;;0.30;0.30;;;11.00;99.90;;;;;;4924982;29;20039;-81
2020/12/23 05:45:15;;;;;;;0.40;0.40;;;10.90;99.90;;;;;;4940511;29;20070;-81
2020/12/23 05:47:43;;;;;;;0.95;0.70;;;10.90;99.90;;;;;;4924559;29;20051;-80
2020/12/23 05:50:10;;;;;;;0.40;0.38;;;10.90;99.90;;;;;;4924660;29;20047;-80
2020/12/23 05:52:43;;;;;;;0.60;0.45;;;10.90;99.90;;;;;;4940199;29;20074;-80
2020/12/23 05:55:17;;;;;;;0.82;0.40;;;10.90;99.90;;;;;;4940216;29;20050;-80
2020/12/23 05:57:52;;;;;;;0.73;0.40;;;10.90;99.90;;;;;;4925110;29;20048;-81
2020/12/23 06:00:19;;;;;;;1.02;0.50;;;11.00;99.90;;;;;;4924727;29;20043;-81
2020/12/23 06:03:14;;;;;;;0.52;0.35;;;10.90;99.90;;;;;;4940126;29;20054;-80
2020/12/23 06:05:44;;;;;;;0.68;0.40;;;10.90;99.90;;;;;;4939744;29;20502;-80
2020/12/23 06:08:15;;;;;;;0.65;0.35;;;10.90;99.90;;;;;;4923995;29;20039;-80
2020/12/23 06:10:49;;;;;;;0.68;0.40;;;10.90;99.90;;;;;;4940049;29;20414;-80
2020/12/23 06:13:27;;;;;;;0.50;0.43;;;10.80;99.90;;;;;;4939996;29;20047;-80
2020/12/23 06:15:59;;;;;;;3.00;0.60;;;10.80;99.90;;;;;;4939721;29;20047;-80
2020/12/23 06:18:27;;;;;;;0.40;0.40;;;10.80;99.90;;;;;;4923952;29;20047;-80
2020/12/23 06:20:56;;;;;;;0.60;0.38;;;10.80;99.90;;;;;;4939570;29;20055;-80
2020/12/23 06:23:27;;;;;;;2.75;0.50;;;10.80;99.90;;;;;;4939290;29;20070;-80
2020/12/23 06:25:54;;;;;;;0.50;0.40;;;10.80;99.90;;;;;;4939200;29;20051;-81
2020/12/23 06:28:23;;;;;;;0.65;0.43;;;10.90;99.90;;;;;;4923138;29;20074;-80
2020/12/23 06:30:52;;;;;;;1.23;0.40;;;10.90;99.90;;;;;;4923085;28;20098;-80
2020/12/23 06:33:21;;;;;;;0.40;0.30;;;11.00;99.90;;;;;;4938858;29;20548;-80
2020/12/23 06:35:49;;;;;;;1.33;0.40;;;11.00;99.90;;;;;;4939087;29;20039;-80
2020/12/23 06:38:24;;;;;;;1.83;0.40;;;11.00;99.90;;;;;;4938941;29;20051;-80
2020/12/23 06:40:59;;;;;;;0.88;0.60;;;11.10;99.90;;;;;;4922370;29;20046;-80
2020/12/23 06:44:00;;;;;;;0.35;0.30;;;11.10;99.90;;;;;;4936725;29;20125;-80
2020/12/23 06:47:01;;;;;;;0.90;0.75;;;11.20;99.90;;;;;;4930527;29;20052;-80
2020/12/23 06:49:52;;;;;;;0.40;0.30;;;11.20;99.90;;;;;;4935362;29;20639;-79
2020/12/23 06:52:23;;;;;;;0.60;0.30;;;11.20;99.90;;;;;;4912722;29;20082;-80
2020/12/23 06:55:09;;;;;;;0.20;0.20;;;11.20;99.90;;;;;;4921737;29;20542;-79
2020/12/23 06:57:36;;;;;;;0.70;0.30;;;11.20;99.90;;;;;;4922466;29;20047;-80
2020/12/23 07:00:27;;;;;;;0.70;0.38;;;11.20;99.90;;;;;;4938360;29;20056;-80
2020/12/23 07:03:00;;;;;;;0.35;0.30;;;11.10;99.90;;;;;;4939557;29;20310;-79
2020/12/23 07:05:35;;;;;;;0.85;0.50;;;11.10;99.90;;;;;;4938935;29;20141;-80
2020/12/23 07:08:12;;;;;;;0.47;0.40;;;11.10;99.90;;;;;;4922621;29;20503;-80
2020/12/23 07:10:49;;;;;;;1.25;0.30;;;11.10;99.90;;;;;;4939018;29;20122;-80
2020/12/23 07:13:19;;;;;;;0.60;0.40;;;11.00;99.90;;;;;;4939509;29;20058;-80
2020/12/23 07:15:50;;;;;;;0.35;0.30;;;11.00;99.90;;;;;;4922316;29;20043;-80
2020/12/23 07:18:23;;;;;;;0.40;0.40;;;10.90;99.90;;;;;;4922831;29;20054;-80
2020/12/23 07:21:00;;;;;;;0.75;0.40;;;10.90;99.90;;;;;;4938272;29;20134;-79
2020/12/23 07:23:32;;;;;;;0.77;0.50;;;10.90;99.90;;;;;;4923010;29;20047;-80
2020/12/23 07:26:04;;;;;;;0.38;0.35;;;10.90;99.90;;;;;;4921821;29;20074;-80
2020/12/23 07:28:40;;;;;;;0.50;0.40;;;10.80;99.90;;;;;;4921473;29;20043;-79
2020/12/23 07:31:09;;;;;;;1.00;0.60;;;10.80;99.90;;;;;;4937851;29;20051;-80
2020/12/23 07:33:39;;;;;;;0.90;0.50;;;10.80;99.90;;;;;;4937912;28;20070;-80
2020/12/23 07:36:08;;;;;;;0.60;0.35;;;10.80;99.90;;;;;;4937880;29;20071;-81
2020/12/23 07:38:40;;;;;;;0.60;0.43;;;10.80;99.90;;;;;;4937774;29;20039;-79
2020/12/23 07:41:12;;;;;;;0.50;0.50;;;10.80;99.90;;;;;;4937511;28;20540;-80
2020/12/23 07:43:46;;;;;;;0.40;0.30;;;10.90;99.90;;;;;;4936699;28;20062;-80
2020/12/23 07:46:13;;;;;;;0.93;0.50;;;10.80;99.90;;;;;;4937735;29;20590;-81
2020/12/23 07:48:40;;;;;;;0.70;0.45;;;10.90;99.90;;;;;;4921623;29;20055;-79
2020/12/23 07:51:09;;;;;;;0.90;0.40;;;10.80;99.90;;;;;;4921479;29;20106;-80
2020/12/23 07:53:36;;;;;;;0.70;0.60;;;10.90;99.90;;;;;;4921668;28;20102;-80
2020/12/23 07:56:06;;;;;;;0.68;0.40;;;10.90;99.90;;;;;;4937277;29;20589;-80
2020/12/23 07:58:39;;;;;;;0.75;0.50;;;10.90;99.90;;;;;;4936897;29;20047;-80
2020/12/23 08:01:12;;;;;;;2.85;0.50;;;11.00;99.90;;;;;;4937119;29;20047;-80
2020/12/23 08:03:48;;;;;;;0.50;0.40;;;11.00;99.90;;;;;;4921267;28;20043;-79
2020/12/23 08:06:16;;;;;;;0.55;0.30;;;11.00;99.90;;;;;;4937780;29;20077;-79
2020/12/23 08:08:44;;;;;;;0.70;0.50;;;11.10;99.90;;;;;;4921768;29;20043;-81
2020/12/23 08:11:14;;;;;;;0.57;0.40;;;11.10;99.90;;;;;;4935655;29;20098;-80
2020/12/23 08:13:42;;;;;;;1.02;0.38;;;11.10;99.90;;;;;;4937091;28;20051;-80
2020/12/23 08:16:17;;;;;;;1.02;0.47;;;11.10;99.90;;;;;;4937907;29;20151;-80
2020/12/23 08:18:52;;;;;;;0.90;0.60;;;11.10;99.90;;;;;;4922195;29;20459;-79
2020/12/23 08:21:19;;;;;;;1.10;0.57;;;11.00;99.90;;;;;;4936516;29;20051;-80
2020/12/23 08:23:52;;;;;;;1.88;0.50;;;11.00;99.90;;;;;;4920824;28;20043;-79
2020/12/23 08:26:20;;;;;;;1.63;0.50;;;11.00;99.90;;;;;;4937290;29;20054;-80
2020/12/23 08:28:47;;;;;;;0.60;0.40;;;11.00;99.90;;;;;;4921220;29;20287;-79
2020/12/23 08:31:22;;;;;;;0.65;0.60;;;11.00;99.90;;;;;;4937240;29;20098;-80
2020/12/23 08:34:38;;;;;;;0.60;0.50;;;11.10;99.90;;;;;;4919998;29;20048;-82
2020/12/23 08:46:51;;;;;;;0.85;0.40;;;11.30;99.90;;;;;;4839772;29;20033;-80
2020/12/23 08:50:24;;;;;;;0.73;0.50;;;11.30;99.90;;;;;;4831340;29;20059;-83
2020/12/23 08:53:42;;;;;;;0.65;0.40;;;11.40;99.90;;;;;;4792305;29;20134;-79
2020/12/23 08:56:34;;;;;;;0.90;0.45;;;11.40;99.90;;;;;;4847490;29;20046;-82
2020/12/23 09:00:47;;;;;;;3.03;0.40;;;11.50;99.90;;;;;;4831073;29;20046;-81
2020/12/23 09:05:10;;;;;;;0.55;0.35;;;11.50;99.90;;;;;;4783626;30;20047;-82
2020/12/23 09:09:30;;;;;;;0.93;0.50;;;11.50;99.90;;;;;;4796197;30;20031;-82
2020/12/23 09:13:29;;;;;;;0.40;0.30;;;11.50;99.90;;;;;;4765153;30;20063;-81
2020/12/23 09:21:02;;;;;;;1.00;0.43;;;11.50;99.90;;;;;;4863873;29;20080;-79
2020/12/23 09:23:34;;;;;;;1.98;0.60;;;11.50;99.90;;;;;;4854962;29;20051;-79
2020/12/23 09:58:15;;;;;;;1.77;0.60;;;11.70;99.90;;;;;;4942721;28;20023;-82
2020/12/23 10:01:41;;;;;;;0.90;0.50;;;11.70;99.90;;;;;;4946055;28;20119;-80
2020/12/23 10:04:52;;;;;;;1.80;0.50;;;11.80;99.90;;;;;;4923912;29;20055;-80
2020/12/23 10:07:23;;;;;;;0.70;0.40;;;11.80;99.90;;;;;;4921653;29;20122;-81
2020/12/23 10:09:55;;;;;;;1.88;0.60;;;11.90;99.90;;;;;;4905925;29;20487;-81
2020/12/23 10:12:23;;;;;;;0.70;0.43;;;11.90;99.90;;;;;;4921457;29;20047;-79
2020/12/23 10:14:54;;;;;;;3.67;1.23;;;11.90;99.90;;;;;;4905146;29;20107;-74
2020/12/23 10:17:21;;;;;;;0.73;0.50;;;11.90;99.90;;;;;;4935315;29;20047;-82
2020/12/23 10:19:52;;;;;;;0.50;0.40;;;12.00;99.90;;;;;;4921766;29;20043;-82
2020/12/23 10:22:19;;;;;;;0.63;0.47;;;12.00;99.90;;;;;;4905961;29;20079;-78
2020/12/23 10:27:38;;;;;;;5.28;2.08;;;12.10;99.90;;;;;;5829803;23;20211;-77
2020/12/23 10:30:07;;;;;;;5.72;1.63;;;12.10;99.90;;;;;;4903319;29;20055;-81
2020/12/23 10:32:39;;;;;;;0.88;0.60;;;12.10;99.90;;;;;;4904769;29;20075;-78
2020/12/23 10:35:07;;;;;;;0.50;0.40;;;12.10;99.90;;;;;;4939243;29;20099;-81
2020/12/23 10:37:33;;;;;;;0.60;0.50;;;12.20;99.90;;;;;;4921283;29;20055;-81
2020/12/23 10:40:00;;;;;;;0.40;0.38;;;12.30;99.90;;;;;;4906278;29;20134;-81
2020/12/23 10:42:28;;;;;;;1.73;0.60;;;12.30;99.90;;;;;;4922065;29;20062;-81
2020/12/23 10:44:55;;;;;;;0.85;0.50;;;12.30;99.90;;;;;;4905310;29;20082;-81
2020/12/23 10:47:27;;;;;;;0.68;0.50;;;12.40;99.60;;;;;;4906135;29;20100;-81
2020/12/23 10:49:54;;;;;;;0.50;0.50;;;12.40;99.30;;;;;;4903555;29;20065;-78
2020/12/23 10:52:20;;;;;;;2.85;1.00;;;12.40;99.40;;;;;;4903378;29;20071;-81
2020/12/23 10:54:47;;;;;;;0.55;0.40;;;12.50;99.50;;;;;;4920894;29;20103;-81
2020/12/23 10:57:14;;;;;;;0.85;0.50;;;12.50;99.30;;;;;;4905193;29;20047;-81
2020/12/23 10:59:41;;;;;;;0.80;0.50;;;12.60;99.30;;;;;;4905265;29;20055;-80
2020/12/23 11:02:08;;;;;;;1.95;0.88;;;12.60;99.50;;;;;;4905028;29;20052;-81
2020/12/23 11:04:35;;;;;;;0.60;0.30;;;12.60;99.20;;;;;;4920593;29;20071;-81
2020/12/23 11:07:06;;;;;;;5.28;1.45;;;12.60;99.70;;;;;;4904890;29;20039;-80
2020/12/23 11:09:38;;;;;;;0.90;0.50;;;12.60;99.90;;;;;;4920322;29;20114;-80
2020/12/23 11:12:05;;;;;;;1.08;0.57;;;12.60;99.10;;;;;;4904262;29;20502;-79
2020/12/23 11:14:32;;;;;;;27.02;7.20;;;12.60;99.00;;;;;;4904220;29;20079;-79
2020/12/23 11:16:58;;;;;;;1.90;0.77;;;12.70;99.80;;;;;;4905681;29;20059;-79
2020/12/23 11:19:28;;;;;;;1.90;0.90;;;12.70;99.10;;;;;;4924888;29;20058;-78
2020/12/23 11:21:55;;;;;;;1.85;0.55;;;12.70;99.60;;;;;;4908734;29;20107;-78
2020/12/23 11:24:22;;;;;;;4.82;1.10;;;12.70;99.50;;;;;;4925065;29;20051;-78
2020/12/23 11:26:53;;;;;;;5.53;1.70;;;12.70;99.60;;;;;;4923322;29;20130;-78
2020/12/23 11:29:20;;;;;;;13.27;5.10;;;12.70;99.60;;;;;;4907822;29;20058;-76
2020/12/23 11:31:53;;;;;;;1.00;0.68;;;12.70;99.90;;;;;;4907801;29;20043;-78
2020/12/23 11:34:20;;;;;;;0.80;0.40;;;12.70;99.90;;;;;;4923731;29;20123;-78
2020/12/23 11:36:46;;;;;;;0.55;0.40;;;12.70;99.50;;;;;;4907367;29;20047;-79
2020/12/23 11:39:18;;;;;;;0.70;0.47;;;12.70;99.90;;;;;;4909695;29;20071;-77
2020/12/23 11:41:44;;;;;;;0.70;0.52;;;12.70;99.80;;;;;;4921919;29;20055;-79
2020/12/23 11:44:15;;;;;;;3.92;1.90;;;12.70;99.90;;;;;;4919432;29;20044;-78
2020/12/23 11:46:48;;;;;;;0.65;0.47;;;12.70;99.90;;;;;;4904358;29;20047;-78
2020/12/23 11:49:14;;;;;;;0.63;0.50;;;12.70;99.70;;;;;;4919685;29;20095;-78
2020/12/23 11:51:48;;;;;;;0.85;0.52;;;12.70;99.70;;;;;;4919786;29;20047;-79
2020/12/23 11:54:14;;;;;;;2.03;0.52;;;12.70;99.90;;;;;;4917855;29;20051;-78
2020/12/23 11:56:41;;;;;;;0.90;0.50;;;12.70;99.30;;;;;;4902102;29;20087;-78
2020/12/23 11:59:16;;;;;;;1.10;0.60;;;12.80;99.40;;;;;;4917251;29;20054;-79
2020/12/23 12:01:43;;;;;;;0.63;0.40;;;12.80;99.30;;;;;;4917853;29;20047;-78
2020/12/23 12:04:14;;;;;;;2.45;0.57;;;12.70;99.80;;;;;;4902848;29;20575;-78
2020/12/23 12:06:46;;;;;;;0.60;0.50;;;12.60;99.90;;;;;;4917813;29;20146;-78
2020/12/23 12:09:12;;;;;;;0.80;0.50;;;12.60;99.90;;;;;;4901542;29;20103;-78
2020/12/23 12:11:39;;;;;;;0.93;0.70;;;12.60;99.90;;;;;;4917667;29;20044;-79
2020/12/23 12:14:05;;;;;;;0.80;0.50;;;12.50;99.90;;;;;;4949181;29;20138;-80
2020/12/23 12:16:36;;;;;;;1.75;0.57;;;12.50;99.90;;;;;;4902350;29;20048;-78
2020/12/23 12:19:10;;;;;;;0.98;0.57;;;12.50;99.90;;;;;;4916953;29;20131;-79
2020/12/23 12:21:42;;;;;;;1.23;0.82;;;12.40;99.90;;;;;;4902922;29;20055;-78
2020/12/23 12:24:08;;;;;;;1.13;0.60;;;12.50;99.90;;;;;;4902584;29;20146;-77
2020/12/23 12:26:40;;;;;;;0.90;0.52;;;12.40;99.90;;;;;;4917903;29;20076;-78
2020/12/23 12:29:06;;;;;;;0.82;0.52;;;12.40;99.90;;;;;;4901162;29;20044;-78
2020/12/23 12:31:34;;;;;;;2.38;0.80;;;12.40;99.90;;;;;;4902247;29;20051;-79
2020/12/23 12:34:01;;;;;;;3.15;1.02;;;12.40;99.90;;;;;;4901842;29;20062;-79
2020/12/23 12:36:28;;;;;;;2.22;0.60;;;12.40;99.90;;;;;;4902483;29;20044;-79
2020/12/23 12:38:59;;;;;;;1.95;1.05;;;12.50;99.90;;;;;;4917579;29;20636;-78
2020/12/23 12:41:35;;;;;;;0.75;0.47;;;12.50;99.90;;;;;;4903727;29;20478;-79
2020/12/23 12:44:09;;;;;;;1.10;0.60;;;12.60;99.40;;;;;;4900580;29;20396;-80
2020/12/23 12:46:36;;;;;;;0.70;0.50;;;12.60;99.70;;;;;;4918140;29;20063;-79
2020/12/23 12:49:03;;;;;;;0.60;0.40;;;12.60;99.90;;;;;;4901861;29;20043;-80
2020/12/23 12:51:31;;;;;;;0.88;0.52;;;12.50;99.90;;;;;;4902674;29;20124;-79
2020/12/23 12:53:58;;;;;;;0.70;0.43;;;12.50;99.90;;;;;;4902146;29;20130;-79
2020/12/23 12:56:29;;;;;;;0.77;0.60;;;12.50;99.90;;;;;;4903609;29;20050;-80
2020/12/23 12:59:01;;;;;;;2.38;0.80;;;12.50;99.90;;;;;;4918843;29;20048;-80
2020/12/23 13:01:36;;;;;;;1.30;1.15;;;12.50;99.90;;;;;;4919070;29;20047;-81
2020/12/23 13:04:04;;;;;;;2.20;1.20;;;12.40;99.90;;;;;;4898021;29;20047;-80
2020/12/23 13:06:32;;;;;;;0.90;0.80;;;12.40;99.90;;;;;;4902581;29;20102;-81
2020/12/23 13:08:59;;;;;;;1.67;1.00;;;12.40;99.90;;;;;;4920799;29;20475;-80
2020/12/23 13:11:27;;;;;;;2.45;2.20;;;12.40;99.90;;;;;;4919907;29;20138;-81
2020/12/23 13:13:59;;;;;;;3.45;2.58;;;12.30;99.90;;;;;;4903601;29;20047;-75
2020/12/23 13:16:33;;;;;;;1.98;1.63;;;12.40;99.90;;;;;;4906451;29;20056;-81
2020/12/23 13:19:05;;;;;;;2.72;2.20;;;12.40;99.80;;;;;;4906753;29;20039;-81
2020/12/23 13:21:32;;;;;;;4.07;2.30;;;12.40;99.40;;;;;;4920008;29;20055;-81
2020/12/23 13:23:59;;;;;;;3.42;2.50;;;12.40;99.80;;;;;;4920100;29;20051;-81
2020/12/23 13:26:31;;;;;;;1.75;1.13;;;12.40;99.90;;;;;;4903431;29;20107;-81
2020/12/23 13:28:58;;;;;;;3.55;1.80;;;12.40;99.70;;;;;;4916422;29;20048;-81
2020/12/23 13:31:32;;;;;;;4.15;2.10;;;12.40;99.90;;;;;;4887746;29;20047;-81
2020/12/23 13:33:59;;;;;;;1.45;1.00;;;12.40;99.90;;;;;;4902638;29;20138;-81
2020/12/23 13:36:26;;;;;;;2.80;1.92;;;12.30;99.90;;;;;;4902780;29;20468;-80
2020/12/23 13:38:58;;;;;;;3.47;1.63;;;12.30;99.90;;;;;;4902933;29;20067;-81
2020/12/23 13:41:25;;;;;;;1.90;0.90;;;12.30;99.90;;;;;;4905028;29;20054;-79
2020/12/23 13:43:52;;;;;;;1.25;0.70;;;12.30;99.20;;;;;;4905661;29;20075;-81
2020/12/23 13:46:19;;;;;;;1.30;0.70;;;12.40;98.90;;;;;;4904715;29;20430;-81
2020/12/23 13:48:48;;;;;;;1.55;0.63;;;12.30;99.50;;;;;;4906604;29;20558;-81
2020/12/23 13:51:15;;;;;;;1.00;0.60;;;12.30;98.90;;;;;;4940115;29;20099;-81
2020/12/23 13:53:42;;;;;;;0.93;0.60;;;12.40;98.80;;;;;;4922524;29;20051;-81
2020/12/23 13:56:18;;;;;;;1.35;0.50;;;12.30;98.70;;;;;;4909019;29;20111;-81
2020/12/23 13:58:51;;;;;;;0.98;0.63;;;12.30;99.10;;;;;;4909178;29;20040;-81
2020/12/23 14:01:19;;;;;;;1.50;0.50;;;12.30;98.90;;;;;;4907402;29;20542;-81
2020/12/23 14:03:50;;;;;;;1.55;0.57;;;12.30;98.80;;;;;;4908338;29;20438;-80